ADDS METAR Data INFO
IDs: Format: Raw Decoded Include TAF

Data at: 0213 UTC 17 Aug 2018

PANT 170153Z AUTO VRB04KT 10SM CLR 16/11 A3016 RMK SLP212 T01610106 TSNO VIA AUTODIAL
PANT 170053Z AUTO 22006KT 10SM CLR 16/09 A3015 RMK SLP211 T01610094 TSNO VIA AUTODIAL
PANT 162353Z AUTO VRB03KT 10SM CLR 19/08 A3015 RMK SLP212 T01890078 10200 20150 51006 TSNO VIA AUTODIAL
PANT 162253Z AUTO 29007KT 10SM CLR 19/09 A3015 RMK SLP209 T01940089 TSNO VIA AUTODIAL
PANT 162053Z AUTO VRB04KT 10SM CLR 17/11 A3014 RMK SLP205 T01670111 51010 TSNO VIA AUTODIAL
PANT 161853Z AUTO 33005KT 10SM CLR 16/12 A3012 RMK SLP200 T01610117 TSNO VIA AUTODIAL
PANT 161753Z AUTO 32006KT 10SM CLR 16/11 A3010 RMK SLP195 T01560111 10156 20100 51008 TSNO VIA AUTODIAL
PANT 161653Z AUTO 31006KT 10SM CLR 14/11 A3010 RMK SLP193 T01440111 TSNO VIA AUTODIAL
PANT 161553Z AUTO 30005KT 10SM CLR 14/12 A3009 RMK SLP190 T01390117 TSNO VIA AUTODIAL
PANT 161353Z AUTO 32004KT 10SM CLR 11/10 A3007 RMK SLP184 T01060100 TSNO VIA AUTODIAL
PANT 161253Z AUTO 32004KT 10SM CLR 10/10 A3007 RMK SLP182 T01000100 TSNO VIA AUTODIAL
PANT 161153Z AUTO 32005KT 10SM CLR 11/10 A3005 RMK SLP178 T01060100 10133 20106 53001 TSNO VIA AUTODIAL
PANT 161053Z AUTO 33004KT 10SM CLR 11/09 A3005 RMK SLP178 T01060094 TSNO VIA AUTODIAL
PANT 160953Z AUTO 34004KT 10SM CLR 11/09 A3005 RMK SLP175 T01060094 TSNO VIA AUTODIAL
PANT 160853Z AUTO 32004KT 10SM CLR 11/09 A3005 RMK SLP176 T01060094 402110100 51005 TSNO VIA AUTODIAL
PANT 160753Z AUTO 34003KT 10SM CLR 11/09 A3005 RMK SLP175 T01110089 TSNO VIA AUTODIAL
PANT 160653Z AUTO 33004KT 10SM CLR 12/09 A3004 RMK SLP174 T01220094 TSNO VIA AUTODIAL
PANT 160453Z AUTO 33008KT 10SM CLR 14/09 A3003 RMK SLP171 T01390094 TSNO VIA AUTODIAL
PANT 160353Z AUTO 33007KT 10SM CLR 15/09 A3002 RMK SLP167 T01500094 TSNO VIA AUTODIAL
PANT 160253Z AUTO 32007KT 10SM CLR 17/09 A3003 RMK SLP168 T01670094 58008 TSNO VIA AUTODIAL
PANT 160153Z AUTO 32007KT 10SM CLR 17/09 A3003 RMK SLP171 T01720094 TSNO VIA AUTODIAL
PANT 160053Z AUTO 28006KT 10SM CLR 19/09 A3004 RMK SLP174 T01940094 TSNO VIA AUTODIAL
PANT 152353Z AUTO 31008KT 10SM CLR 20/09 A3005 RMK SLP177 T02000094 10211 20178 58010 TSNO VIA AUTODIAL
PANT 152253Z AUTO 31008KT 280V350 10SM CLR 21/09 A3006 RMK SLP180 T02110094 TSNO VIA AUTODIAL
PANT 152153Z AUTO 33007KT 10SM CLR 21/11 A3008 RMK SLP185 T02060106 TSNO VIA AUTODIAL
PANT 152053Z AUTO 30009KT 10SM CLR 20/11 A3008 RMK SLP187 T02000106 50000 TSNO VIA AUTODIAL
PANT 151953Z AUTO 29008KT 10SM CLR 19/11 A3009 RMK SLP188 T01890111 TSNO VIA AUTODIAL
PANT 151853Z AUTO 29009KT 10SM CLR 18/11 A3009 RMK SLP189 T01830111 TSNO VIA AUTODIAL
PANT 151753Z AUTO VRB06KT 10SM CLR 18/11 A3008 RMK SLP186 T01780111 10178 20100 58000 TSNO VIA AUTODIAL
PANT 151653Z AUTO 32008KT 10SM CLR 16/11 A3008 RMK SLP187 T01610106 TSNO VIA AUTODIAL
PANT 151553Z AUTO 33007KT 10SM CLR 14/11 A3008 RMK SLP187 T01440106 TSNO VIA AUTODIAL
PANT 151453Z AUTO 34004KT 10SM CLR 11/10 A3008 RMK SLP187 T01110100 53003 TSNO VIA AUTODIAL